sensor_id;sensor_type;location;lat;lon;timestamp;P1;durP1;ratioP1;P2;durP2;ratioP2
82244;SDS011;71849;50.096;14.458;2023-08-12T00:00:45;9.77;;;5.07;;
82244;SDS011;71849;50.096;14.458;2023-08-12T00:03:11;9.00;;;5.43;;
82244;SDS011;71849;50.096;14.458;2023-08-12T00:05:37;9.18;;;5.47;;
82244;SDS011;71849;50.096;14.458;2023-08-12T00:08:03;9.00;;;5.45;;
82244;SDS011;71849;50.096;14.458;2023-08-12T00:10:28;8.65;;;4.97;;
82244;SDS011;71849;50.096;14.458;2023-08-12T00:12:55;10.38;;;5.03;;
82244;SDS011;71849;50.096;14.458;2023-08-12T00:15:20;10.40;;;5.60;;
82244;SDS011;71849;50.096;14.458;2023-08-12T00:17:46;8.80;;;5.07;;
82244;SDS011;71849;50.096;14.458;2023-08-12T00:20:11;10.02;;;5.30;;
82244;SDS011;71849;50.096;14.458;2023-08-12T00:22:38;11.38;;;5.57;;
82244;SDS011;71849;50.096;14.458;2023-08-12T00:25:05;10.35;;;5.65;;
82244;SDS011;71849;50.096;14.458;2023-08-12T00:27:31;10.52;;;5.57;;
82244;SDS011;71849;50.096;14.458;2023-08-12T00:29:56;9.30;;;5.57;;
82244;SDS011;71849;50.096;14.458;2023-08-12T00:32:22;10.10;;;5.50;;
82244;SDS011;71849;50.096;14.458;2023-08-12T00:34:47;9.00;;;5.03;;
82244;SDS011;71849;50.096;14.458;2023-08-12T00:37:12;8.63;;;5.38;;
82244;SDS011;71849;50.096;14.458;2023-08-12T00:39:38;8.25;;;5.38;;
82244;SDS011;71849;50.096;14.458;2023-08-12T00:42:03;10.05;;;5.15;;
82244;SDS011;71849;50.096;14.458;2023-08-12T00:44:29;9.27;;;5.50;;
82244;SDS011;71849;50.096;14.458;2023-08-12T00:46:54;9.32;;;5.63;;
82244;SDS011;71849;50.096;14.458;2023-08-12T00:49:20;9.07;;;5.25;;
82244;SDS011;71849;50.096;14.458;2023-08-12T00:51:48;8.05;;;5.10;;
82244;SDS011;71849;50.096;14.458;2023-08-12T00:54:15;9.65;;;5.88;;
82244;SDS011;71849;50.096;14.458;2023-08-12T00:56:41;7.22;;;4.70;;
82244;SDS011;71849;50.096;14.458;2023-08-12T00:59:08;8.73;;;4.90;;
82244;SDS011;71849;50.096;14.458;2023-08-12T01:01:35;10.15;;;5.03;;
82244;SDS011;71849;50.096;14.458;2023-08-12T01:04:05;9.95;;;5.05;;
82244;SDS011;71849;50.096;14.458;2023-08-12T01:06:31;8.00;;;4.85;;
82244;SDS011;71849;50.096;14.458;2023-08-12T01:08:56;10.68;;;5.28;;
82244;SDS011;71849;50.096;14.458;2023-08-12T01:11:36;8.30;;;5.15;;
82244;SDS011;71849;50.096;14.458;2023-08-12T01:17:36;8.52;;;5.30;;
82244;SDS011;71849;50.096;14.458;2023-08-12T01:20:03;8.90;;;5.43;;
82244;SDS011;71849;50.096;14.458;2023-08-12T01:22:37;9.48;;;4.90;;
82244;SDS011;71849;50.096;14.458;2023-08-12T01:25:06;10.25;;;5.10;;
82244;SDS011;71849;50.096;14.458;2023-08-12T01:27:33;9.95;;;5.68;;
82244;SDS011;71849;50.096;14.458;2023-08-12T01:30:01;9.70;;;5.30;;
82244;SDS011;71849;50.096;14.458;2023-08-12T01:35:19;9.65;;;5.80;;
82244;SDS011;71849;50.096;14.458;2023-08-12T01:37:50;10.32;;;5.63;;
82244;SDS011;71849;50.096;14.458;2023-08-12T01:40:17;11.25;;;5.72;;
82244;SDS011;71849;50.096;14.458;2023-08-12T01:42:45;10.55;;;5.80;;
82244;SDS011;71849;50.096;14.458;2023-08-12T01:45:11;12.13;;;5.97;;
82244;SDS011;71849;50.096;14.458;2023-08-12T01:47:36;13.07;;;6.13;;
82244;SDS011;71849;50.096;14.458;2023-08-12T01:50:03;11.80;;;6.30;;
82244;SDS011;71849;50.096;14.458;2023-08-12T01:52:28;14.45;;;6.97;;
82244;SDS011;71849;50.096;14.458;2023-08-12T01:54:54;9.57;;;6.00;;
82244;SDS011;71849;50.096;14.458;2023-08-12T01:57:20;11.05;;;5.78;;
82244;SDS011;71849;50.096;14.458;2023-08-12T01:59:45;10.20;;;6.53;;
82244;SDS011;71849;50.096;14.458;2023-08-12T02:02:12;12.40;;;5.78;;
82244;SDS011;71849;50.096;14.458;2023-08-12T02:04:39;12.20;;;6.25;;
82244;SDS011;71849;50.096;14.458;2023-08-12T02:07:05;12.88;;;6.63;;
82244;SDS011;71849;50.096;14.458;2023-08-12T02:09:30;12.73;;;6.10;;
82244;SDS011;71849;50.096;14.458;2023-08-12T02:11:56;11.25;;;6.45;;
82244;SDS011;71849;50.096;14.458;2023-08-12T02:14:22;11.50;;;6.60;;
82244;SDS011;71849;50.096;14.458;2023-08-12T02:16:47;12.70;;;7.00;;
82244;SDS011;71849;50.096;14.458;2023-08-12T02:19:12;9.98;;;6.22;;
82244;SDS011;71849;50.096;14.458;2023-08-12T02:21:38;12.63;;;6.50;;
82244;SDS011;71849;50.096;14.458;2023-08-12T02:24:03;11.85;;;6.35;;
82244;SDS011;71849;50.096;14.458;2023-08-12T02:26:29;11.13;;;6.00;;
82244;SDS011;71849;50.096;14.458;2023-08-12T02:28:55;11.18;;;5.70;;
82244;SDS011;71849;50.096;14.458;2023-08-12T02:31:22;9.88;;;5.55;;
82244;SDS011;71849;50.096;14.458;2023-08-12T02:33:47;8.52;;;5.03;;
82244;SDS011;71849;50.096;14.458;2023-08-12T02:36:14;9.75;;;5.32;;
82244;SDS011;71849;50.096;14.458;2023-08-12T02:38:40;9.20;;;5.03;;
82244;SDS011;71849;50.096;14.458;2023-08-12T02:41:05;10.02;;;5.47;;
82244;SDS011;71849;50.096;14.458;2023-08-12T02:43:31;9.43;;;4.65;;
82244;SDS011;71849;50.096;14.458;2023-08-12T02:45:56;9.35;;;5.50;;
82244;SDS011;71849;50.096;14.458;2023-08-12T02:48:21;9.52;;;5.65;;
82244;SDS011;71849;50.096;14.458;2023-08-12T02:50:47;9.03;;;5.50;;
82244;SDS011;71849;50.096;14.458;2023-08-12T02:53:12;10.02;;;5.47;;
82244;SDS011;71849;50.096;14.458;2023-08-12T02:55:38;9.85;;;5.40;;
82244;SDS011;71849;50.096;14.458;2023-08-12T02:58:03;9.25;;;5.25;;
82244;SDS011;71849;50.096;14.458;2023-08-12T03:00:29;8.20;;;5.68;;
82244;SDS011;71849;50.096;14.458;2023-08-12T03:02:54;8.77;;;4.80;;
82244;SDS011;71849;50.096;14.458;2023-08-12T03:05:20;9.00;;;5.40;;
82244;SDS011;71849;50.096;14.458;2023-08-12T03:07:46;9.32;;;5.15;;
82244;SDS011;71849;50.096;14.458;2023-08-12T03:10:12;10.40;;;5.15;;
82244;SDS011;71849;50.096;14.458;2023-08-12T03:12:37;9.90;;;5.35;;
82244;SDS011;71849;50.096;14.458;2023-08-12T03:15:03;8.43;;;5.70;;
82244;SDS011;71849;50.096;14.458;2023-08-12T03:17:30;12.18;;;6.00;;
82244;SDS011;71849;50.096;14.458;2023-08-12T03:19:56;9.32;;;5.78;;
82244;SDS011;71849;50.096;14.458;2023-08-12T03:22:24;10.45;;;5.68;;
82244;SDS011;71849;50.096;14.458;2023-08-12T03:24:50;9.32;;;4.90;;
82244;SDS011;71849;50.096;14.458;2023-08-12T03:27:15;11.30;;;5.43;;
82244;SDS011;71849;50.096;14.458;2023-08-12T03:29:41;9.57;;;5.18;;
82244;SDS011;71849;50.096;14.458;2023-08-12T03:32:06;8.60;;;5.47;;
82244;SDS011;71849;50.096;14.458;2023-08-12T03:34:32;9.88;;;5.25;;
82244;SDS011;71849;50.096;14.458;2023-08-12T03:36:57;8.00;;;5.03;;
82244;SDS011;71849;50.096;14.458;2023-08-12T03:39:23;10.27;;;5.45;;
82244;SDS011;71849;50.096;14.458;2023-08-12T03:41:48;8.73;;;5.75;;
82244;SDS011;71849;50.096;14.458;2023-08-12T03:44:15;9.18;;;5.88;;
82244;SDS011;71849;50.096;14.458;2023-08-12T03:46:41;9.70;;;5.88;;
82244;SDS011;71849;50.096;14.458;2023-08-12T03:49:06;10.05;;;5.60;;
82244;SDS011;71849;50.096;14.458;2023-08-12T03:51:31;8.73;;;5.47;;
82244;SDS011;71849;50.096;14.458;2023-08-12T03:53:57;10.02;;;5.72;;
82244;SDS011;71849;50.096;14.458;2023-08-12T03:56:23;8.70;;;5.55;;
82244;SDS011;71849;50.096;14.458;2023-08-12T03:58:48;9.38;;;5.18;;
82244;SDS011;71849;50.096;14.458;2023-08-12T04:01:14;8.98;;;5.55;;
82244;SDS011;71849;50.096;14.458;2023-08-12T04:03:39;9.85;;;5.35;;
82244;SDS011;71849;50.096;14.458;2023-08-12T04:06:04;11.02;;;6.13;;
82244;SDS011;71849;50.096;14.458;2023-08-12T04:08:30;10.32;;;5.28;;
82244;SDS011;71849;50.096;14.458;2023-08-12T04:10:57;8.70;;;5.55;;
82244;SDS011;71849;50.096;14.458;2023-08-12T04:13:22;8.52;;;5.68;;
82244;SDS011;71849;50.096;14.458;2023-08-12T04:15:49;9.80;;;5.45;;
82244;SDS011;71849;50.096;14.458;2023-08-12T04:18:16;10.60;;;6.07;;
82244;SDS011;71849;50.096;14.458;2023-08-12T04:20:41;8.73;;;5.18;;
82244;SDS011;71849;50.096;14.458;2023-08-12T04:23:07;9.65;;;5.78;;
82244;SDS011;71849;50.096;14.458;2023-08-12T04:25:32;9.75;;;5.95;;
82244;SDS011;71849;50.096;14.458;2023-08-12T04:27:58;9.23;;;5.40;;
82244;SDS011;71849;50.096;14.458;2023-08-12T04:30:23;9.18;;;5.75;;
82244;SDS011;71849;50.096;14.458;2023-08-12T04:32:49;7.82;;;4.65;;
82244;SDS011;71849;50.096;14.458;2023-08-12T04:35:14;9.45;;;5.07;;
82244;SDS011;71849;50.096;14.458;2023-08-12T04:37:40;8.38;;;5.28;;
82244;SDS011;71849;50.096;14.458;2023-08-12T04:40:05;8.80;;;5.47;;
82244;SDS011;71849;50.096;14.458;2023-08-12T04:42:34;10.60;;;5.22;;
82244;SDS011;71849;50.096;14.458;2023-08-12T04:45:00;7.40;;;4.85;;
82244;SDS011;71849;50.096;14.458;2023-08-12T04:47:25;9.05;;;5.68;;
82244;SDS011;71849;50.096;14.458;2023-08-12T04:49:51;8.23;;;5.50;;
82244;SDS011;71849;50.096;14.458;2023-08-12T04:52:17;8.50;;;4.80;;
82244;SDS011;71849;50.096;14.458;2023-08-12T04:54:42;8.88;;;5.75;;
82244;SDS011;71849;50.096;14.458;2023-08-12T04:57:08;8.93;;;5.40;;
82244;SDS011;71849;50.096;14.458;2023-08-12T04:59:36;8.95;;;5.10;;
82244;SDS011;71849;50.096;14.458;2023-08-12T05:02:02;9.00;;;5.70;;
82244;SDS011;71849;50.096;14.458;2023-08-12T05:04:27;8.98;;;5.93;;
82244;SDS011;71849;50.096;14.458;2023-08-12T05:06:53;11.52;;;5.28;;
82244;SDS011;71849;50.096;14.458;2023-08-12T05:09:18;9.32;;;5.70;;
82244;SDS011;71849;50.096;14.458;2023-08-12T05:11:43;9.05;;;6.00;;
82244;SDS011;71849;50.096;14.458;2023-08-12T05:14:09;9.00;;;5.85;;
82244;SDS011;71849;50.096;14.458;2023-08-12T05:16:37;9.95;;;5.78;;
82244;SDS011;71849;50.096;14.458;2023-08-12T05:19:03;8.35;;;5.43;;
82244;SDS011;71849;50.096;14.458;2023-08-12T05:21:28;9.15;;;5.45;;
82244;SDS011;71849;50.096;14.458;2023-08-12T05:23:54;9.95;;;5.65;;
82244;SDS011;71849;50.096;14.458;2023-08-12T05:26:19;9.57;;;5.78;;
82244;SDS011;71849;50.096;14.458;2023-08-12T05:28:46;9.63;;;5.55;;
82244;SDS011;71849;50.096;14.458;2023-08-12T05:31:11;9.63;;;5.50;;
82244;SDS011;71849;50.096;14.458;2023-08-12T05:33:36;8.95;;;5.43;;
82244;SDS011;71849;50.096;14.458;2023-08-12T05:36:02;10.18;;;5.40;;
82244;SDS011;71849;50.096;14.458;2023-08-12T05:38:28;9.90;;;5.60;;
82244;SDS011;71849;50.096;14.458;2023-08-12T05:40:53;9.10;;;5.22;;
82244;SDS011;71849;50.096;14.458;2023-08-12T05:43:18;9.70;;;5.47;;
82244;SDS011;71849;50.096;14.458;2023-08-12T05:45:44;9.93;;;5.22;;
82244;SDS011;71849;50.096;14.458;2023-08-12T05:48:12;8.65;;;5.13;;
82244;SDS011;71849;50.096;14.458;2023-08-12T05:50:40;8.32;;;5.18;;
82244;SDS011;71849;50.096;14.458;2023-08-12T05:53:08;7.28;;;4.72;;
82244;SDS011;71849;50.096;14.458;2023-08-12T05:55:33;8.40;;;5.05;;
82244;SDS011;71849;50.096;14.458;2023-08-12T05:58:02;9.73;;;5.10;;
82244;SDS011;71849;50.096;14.458;2023-08-12T06:00:32;7.35;;;4.78;;
82244;SDS011;71849;50.096;14.458;2023-08-12T06:02:58;10.70;;;5.20;;
82244;SDS011;71849;50.096;14.458;2023-08-12T06:05:23;8.63;;;4.85;;
82244;SDS011;71849;50.096;14.458;2023-08-12T06:07:48;8.18;;;4.65;;
82244;SDS011;71849;50.096;14.458;2023-08-12T06:10:14;9.27;;;4.68;;
82244;SDS011;71849;50.096;14.458;2023-08-12T06:12:39;10.45;;;5.38;;
82244;SDS011;71849;50.096;14.458;2023-08-12T06:15:07;8.55;;;5.18;;
82244;SDS011;71849;50.096;14.458;2023-08-12T06:17:33;8.50;;;5.82;;
82244;SDS011;71849;50.096;14.458;2023-08-12T06:20:00;9.77;;;4.88;;
82244;SDS011;71849;50.096;14.458;2023-08-12T06:22:25;9.98;;;4.60;;
82244;SDS011;71849;50.096;14.458;2023-08-12T06:24:51;7.63;;;4.22;;
82244;SDS011;71849;50.096;14.458;2023-08-12T06:27:17;8.00;;;4.72;;
82244;SDS011;71849;50.096;14.458;2023-08-12T06:29:44;8.35;;;4.45;;
82244;SDS011;71849;50.096;14.458;2023-08-12T06:32:10;7.57;;;4.20;;
82244;SDS011;71849;50.096;14.458;2023-08-12T06:34:37;9.65;;;5.13;;
82244;SDS011;71849;50.096;14.458;2023-08-12T06:37:03;9.98;;;5.95;;
82244;SDS011;71849;50.096;14.458;2023-08-12T06:39:29;9.80;;;5.00;;
82244;SDS011;71849;50.096;14.458;2023-08-12T06:41:54;9.77;;;4.25;;
82244;SDS011;71849;50.096;14.458;2023-08-12T06:44:20;7.15;;;4.25;;
82244;SDS011;71849;50.096;14.458;2023-08-12T06:46:46;6.68;;;4.00;;
82244;SDS011;71849;50.096;14.458;2023-08-12T06:49:11;8.00;;;4.57;;
82244;SDS011;71849;50.096;14.458;2023-08-12T06:51:37;7.97;;;4.88;;
82244;SDS011;71849;50.096;14.458;2023-08-12T06:54:03;9.95;;;5.10;;
82244;SDS011;71849;50.096;14.458;2023-08-12T06:56:31;9.63;;;4.63;;
82244;SDS011;71849;50.096;14.458;2023-08-12T06:58:59;8.00;;;4.50;;
82244;SDS011;71849;50.096;14.458;2023-08-12T07:01:24;7.60;;;3.97;;
82244;SDS011;71849;50.096;14.458;2023-08-12T07:03:50;7.78;;;4.10;;
82244;SDS011;71849;50.096;14.458;2023-08-12T07:06:15;9.82;;;4.50;;
82244;SDS011;71849;50.096;14.458;2023-08-12T07:08:41;13.30;;;7.80;;
82244;SDS011;71849;50.096;14.458;2023-08-12T07:11:13;10.70;;;6.20;;
82244;SDS011;71849;50.096;14.458;2023-08-12T07:13:39;9.30;;;4.60;;
82244;SDS011;71849;50.096;14.458;2023-08-12T07:16:04;7.03;;;4.20;;
82244;SDS011;71849;50.096;14.458;2023-08-12T07:18:29;8.40;;;4.22;;
82244;SDS011;71849;50.096;14.458;2023-08-12T07:20:56;7.25;;;4.47;;
82244;SDS011;71849;50.096;14.458;2023-08-12T07:23:23;8.07;;;4.15;;
82244;SDS011;71849;50.096;14.458;2023-08-12T07:25:49;8.40;;;3.95;;
82244;SDS011;71849;50.096;14.458;2023-08-12T07:28:14;8.02;;;4.13;;
82244;SDS011;71849;50.096;14.458;2023-08-12T07:30:39;7.22;;;4.43;;
82244;SDS011;71849;50.096;14.458;2023-08-12T07:33:05;7.78;;;4.10;;
82244;SDS011;71849;50.096;14.458;2023-08-12T07:35:30;7.70;;;4.20;;
82244;SDS011;71849;50.096;14.458;2023-08-12T07:37:56;6.50;;;4.00;;
82244;SDS011;71849;50.096;14.458;2023-08-12T07:40:21;6.72;;;4.13;;
82244;SDS011;71849;50.096;14.458;2023-08-12T07:42:46;7.20;;;4.20;;
82244;SDS011;71849;50.096;14.458;2023-08-12T07:45:12;7.75;;;4.20;;
82244;SDS011;71849;50.096;14.458;2023-08-12T07:47:38;7.30;;;3.70;;
82244;SDS011;71849;50.096;14.458;2023-08-12T07:50:03;6.55;;;3.72;;
82244;SDS011;71849;50.096;14.458;2023-08-12T07:52:30;7.45;;;3.67;;
82244;SDS011;71849;50.096;14.458;2023-08-12T07:54:58;6.78;;;3.97;;
82244;SDS011;71849;50.096;14.458;2023-08-12T07:57:23;10.27;;;6.78;;
82244;SDS011;71849;50.096;14.458;2023-08-12T07:59:49;9.48;;;4.30;;
82244;SDS011;71849;50.096;14.458;2023-08-12T08:02:15;8.20;;;3.95;;
82244;SDS011;71849;50.096;14.458;2023-08-12T08:04:42;8.55;;;4.30;;
82244;SDS011;71849;50.096;14.458;2023-08-12T08:07:20;7.53;;;4.30;;
82244;SDS011;71849;50.096;14.458;2023-08-12T08:09:45;8.80;;;5.50;;
82244;SDS011;71849;50.096;14.458;2023-08-12T08:12:10;8.75;;;4.50;;
82244;SDS011;71849;50.096;14.458;2023-08-12T08:14:39;9.63;;;4.38;;
82244;SDS011;71849;50.096;14.458;2023-08-12T08:17:04;7.93;;;3.67;;
82244;SDS011;71849;50.096;14.458;2023-08-12T08:19:31;7.93;;;4.00;;
82244;SDS011;71849;50.096;14.458;2023-08-12T08:21:57;7.88;;;4.22;;
82244;SDS011;71849;50.096;14.458;2023-08-12T08:24:26;6.40;;;3.72;;
82244;SDS011;71849;50.096;14.458;2023-08-12T08:26:52;7.22;;;3.80;;
82244;SDS011;71849;50.096;14.458;2023-08-12T08:29:17;6.82;;;3.70;;
82244;SDS011;71849;50.096;14.458;2023-08-12T08:31:45;7.68;;;3.60;;
82244;SDS011;71849;50.096;14.458;2023-08-12T08:34:11;5.38;;;2.40;;
82244;SDS011;71849;50.096;14.458;2023-08-12T08:36:36;5.22;;;2.92;;
82244;SDS011;71849;50.096;14.458;2023-08-12T08:39:02;7.13;;;3.53;;
82244;SDS011;71849;50.096;14.458;2023-08-12T08:41:37;5.28;;;2.88;;
82244;SDS011;71849;50.096;14.458;2023-08-12T08:44:07;8.82;;;3.80;;
82244;SDS011;71849;50.096;14.458;2023-08-12T08:46:37;6.28;;;3.03;;
82244;SDS011;71849;50.096;14.458;2023-08-12T08:49:06;6.45;;;3.28;;
82244;SDS011;71849;50.096;14.458;2023-08-12T08:51:39;6.68;;;2.95;;
82244;SDS011;71849;50.096;14.458;2023-08-12T08:54:04;5.57;;;3.17;;
82244;SDS011;71849;50.096;14.458;2023-08-12T08:56:34;5.28;;;2.85;;
82244;SDS011;71849;50.096;14.458;2023-08-12T08:58:59;6.68;;;3.28;;
82244;SDS011;71849;50.096;14.458;2023-08-12T09:01:25;7.55;;;3.60;;
82244;SDS011;71849;50.096;14.458;2023-08-12T09:03:53;6.22;;;3.00;;
82244;SDS011;71849;50.096;14.458;2023-08-12T09:06:21;5.75;;;2.80;;
82244;SDS011;71849;50.096;14.458;2023-08-12T09:08:48;5.90;;;3.17;;
82244;SDS011;71849;50.096;14.458;2023-08-12T09:11:17;4.97;;;2.83;;
82244;SDS011;71849;50.096;14.458;2023-08-12T09:13:47;7.82;;;3.22;;
82244;SDS011;71849;50.096;14.458;2023-08-12T09:16:15;5.88;;;3.13;;
82244;SDS011;71849;50.096;14.458;2023-08-12T09:18:44;7.80;;;3.55;;
82244;SDS011;71849;50.096;14.458;2023-08-12T09:21:11;8.32;;;3.70;;
82244;SDS011;71849;50.096;14.458;2023-08-12T09:23:38;6.40;;;3.22;;
82244;SDS011;71849;50.096;14.458;2023-08-12T09:26:15;8.02;;;3.60;;
82244;SDS011;71849;50.096;14.458;2023-08-12T09:28:46;7.18;;;3.13;;
82244;SDS011;71849;50.096;14.458;2023-08-12T09:31:25;6.15;;;3.00;;
82244;SDS011;71849;50.096;14.458;2023-08-12T09:33:57;6.55;;;2.72;;
82244;SDS011;71849;50.096;14.458;2023-08-12T09:36:31;6.57;;;2.50;;
82244;SDS011;71849;50.096;14.458;2023-08-12T09:38:59;6.75;;;3.15;;
82244;SDS011;71849;50.096;14.458;2023-08-12T09:41:33;6.35;;;2.95;;
82244;SDS011;71849;50.096;14.458;2023-08-12T09:44:01;8.23;;;3.13;;
82244;SDS011;71849;50.096;14.458;2023-08-12T09:46:35;5.15;;;2.60;;
82244;SDS011;71849;50.096;14.458;2023-08-12T09:49:01;4.72;;;2.22;;
82244;SDS011;71849;50.096;14.458;2023-08-12T09:51:33;5.78;;;2.65;;
82244;SDS011;71849;50.096;14.458;2023-08-12T09:54:00;5.75;;;2.42;;
82244;SDS011;71849;50.096;14.458;2023-08-12T09:56:28;6.95;;;2.30;;
82244;SDS011;71849;50.096;14.458;2023-08-12T09:59:01;5.10;;;2.80;;
82244;SDS011;71849;50.096;14.458;2023-08-12T10:01:30;7.70;;;3.60;;
82244;SDS011;71849;50.096;14.458;2023-08-12T10:03:56;5.38;;;2.13;;
82244;SDS011;71849;50.096;14.458;2023-08-12T10:06:21;5.50;;;2.67;;
82244;SDS011;71849;50.096;14.458;2023-08-12T10:08:49;4.90;;;2.30;;
82244;SDS011;71849;50.096;14.458;2023-08-12T10:11:15;5.70;;;2.33;;
82244;SDS011;71849;50.096;14.458;2023-08-12T10:13:41;5.28;;;2.15;;
82244;SDS011;71849;50.096;14.458;2023-08-12T10:16:08;5.97;;;2.60;;
82244;SDS011;71849;50.096;14.458;2023-08-12T10:18:34;6.07;;;2.40;;
82244;SDS011;71849;50.096;14.458;2023-08-12T10:21:01;5.00;;;2.33;;
82244;SDS011;71849;50.096;14.458;2023-08-12T10:23:27;6.05;;;2.25;;
82244;SDS011;71849;50.096;14.458;2023-08-12T10:25:54;7.57;;;3.53;;
82244;SDS011;71849;50.096;14.458;2023-08-12T10:28:20;6.20;;;2.40;;
82244;SDS011;71849;50.096;14.458;2023-08-12T10:30:46;6.75;;;2.78;;
82244;SDS011;71849;50.096;14.458;2023-08-12T10:33:13;6.95;;;2.60;;
82244;SDS011;71849;50.096;14.458;2023-08-12T10:35:48;5.18;;;2.45;;
82244;SDS011;71849;50.096;14.458;2023-08-12T10:38:16;4.32;;;2.15;;
82244;SDS011;71849;50.096;14.458;2023-08-12T10:40:43;6.65;;;2.47;;
82244;SDS011;71849;50.096;14.458;2023-08-12T10:43:08;7.85;;;2.53;;
82244;SDS011;71849;50.096;14.458;2023-08-12T10:45:43;5.15;;;2.05;;
82244;SDS011;71849;50.096;14.458;2023-08-12T10:48:16;4.43;;;1.90;;
82244;SDS011;71849;50.096;14.458;2023-08-12T10:50:45;4.07;;;1.95;;
82244;SDS011;71849;50.096;14.458;2023-08-12T10:53:23;4.38;;;2.00;;
82244;SDS011;71849;50.096;14.458;2023-08-12T10:55:49;6.40;;;2.30;;
82244;SDS011;71849;50.096;14.458;2023-08-12T10:58:28;5.07;;;2.20;;
82244;SDS011;71849;50.096;14.458;2023-08-12T11:01:08;7.30;;;2.47;;
82244;SDS011;71849;50.096;14.458;2023-08-12T11:03:38;4.93;;;1.90;;
82244;SDS011;71849;50.096;14.458;2023-08-12T11:06:09;6.25;;;2.30;;
82244;SDS011;71849;50.096;14.458;2023-08-12T11:08:36;6.30;;;2.00;;
82244;SDS011;71849;50.096;14.458;2023-08-12T11:11:18;5.15;;;1.95;;
82244;SDS011;71849;50.096;14.458;2023-08-12T11:13:57;19.98;;;3.00;;
82244;SDS011;71849;50.096;14.458;2023-08-12T11:16:36;6.63;;;2.15;;
82244;SDS011;71849;50.096;14.458;2023-08-12T11:19:05;8.38;;;2.17;;
82244;SDS011;71849;50.096;14.458;2023-08-12T11:21:31;4.00;;;1.90;;
82244;SDS011;71849;50.096;14.458;2023-08-12T11:23:56;7.35;;;2.00;;
82244;SDS011;71849;50.096;14.458;2023-08-12T11:26:23;4.55;;;1.70;;
82244;SDS011;71849;50.096;14.458;2023-08-12T11:28:54;9.80;;;2.00;;
82244;SDS011;71849;50.096;14.458;2023-08-12T11:31:20;4.82;;;1.60;;
82244;SDS011;71849;50.096;14.458;2023-08-12T11:33:47;3.63;;;1.60;;
82244;SDS011;71849;50.096;14.458;2023-08-12T11:36:13;4.38;;;1.80;;
82244;SDS011;71849;50.096;14.458;2023-08-12T11:38:40;5.35;;;1.92;;
82244;SDS011;71849;50.096;14.458;2023-08-12T11:41:07;4.32;;;1.75;;
82244;SDS011;71849;50.096;14.458;2023-08-12T11:43:32;5.75;;;2.03;;
82244;SDS011;71849;50.096;14.458;2023-08-12T11:45:58;3.95;;;1.80;;
82244;SDS011;71849;50.096;14.458;2023-08-12T11:48:24;4.32;;;1.90;;
82244;SDS011;71849;50.096;14.458;2023-08-12T11:50:51;4.40;;;1.80;;
82244;SDS011;71849;50.096;14.458;2023-08-12T11:53:16;3.65;;;1.83;;
82244;SDS011;71849;50.096;14.458;2023-08-12T11:55:42;4.15;;;1.50;;
82244;SDS011;71849;50.096;14.458;2023-08-12T11:58:08;4.38;;;1.70;;
82244;SDS011;71849;50.096;14.458;2023-08-12T12:00:33;7.28;;;2.90;;
82244;SDS011;71849;50.096;14.458;2023-08-12T12:02:59;5.88;;;1.92;;
82244;SDS011;71849;50.096;14.458;2023-08-12T12:05:28;5.47;;;1.70;;
82244;SDS011;71849;50.096;14.458;2023-08-12T12:07:58;4.22;;;1.95;;
82244;SDS011;71849;50.096;14.458;2023-08-12T12:12:54;3.10;;;1.33;;
82244;SDS011;71849;50.096;14.458;2023-08-12T12:15:20;6.40;;;2.17;;
82244;SDS011;71849;50.096;14.458;2023-08-12T12:17:46;9.68;;;3.90;;
82244;SDS011;71849;50.096;14.458;2023-08-12T12:20:12;7.68;;;1.70;;
82244;SDS011;71849;50.096;14.458;2023-08-12T12:22:40;5.75;;;2.30;;
82244;SDS011;71849;50.096;14.458;2023-08-12T12:25:09;3.83;;;1.80;;
82244;SDS011;71849;50.096;14.458;2023-08-12T12:27:38;5.38;;;2.10;;
82244;SDS011;71849;50.096;14.458;2023-08-12T12:30:10;5.03;;;2.00;;
82244;SDS011;71849;50.096;14.458;2023-08-12T12:32:37;3.80;;;1.65;;
82244;SDS011;71849;50.096;14.458;2023-08-12T12:35:03;4.53;;;1.60;;
82244;SDS011;71849;50.096;14.458;2023-08-12T12:37:29;5.88;;;1.77;;
82244;SDS011;71849;50.096;14.458;2023-08-12T12:40:02;6.80;;;2.88;;
82244;SDS011;71849;50.096;14.458;2023-08-12T12:42:28;6.75;;;1.80;;
82244;SDS011;71849;50.096;14.458;2023-08-12T12:44:54;3.60;;;1.40;;
82244;SDS011;71849;50.096;14.458;2023-08-12T12:47:20;4.50;;;1.70;;
82244;SDS011;71849;50.096;14.458;2023-08-12T12:49:46;6.60;;;1.92;;
82244;SDS011;71849;50.096;14.458;2023-08-12T12:52:11;5.32;;;2.25;;
82244;SDS011;71849;50.096;14.458;2023-08-12T12:54:36;4.28;;;1.65;;
82244;SDS011;71849;50.096;14.458;2023-08-12T12:57:02;5.00;;;1.58;;
82244;SDS011;71849;50.096;14.458;2023-08-12T12:59:29;4.88;;;1.52;;
82244;SDS011;71849;50.096;14.458;2023-08-12T13:01:54;6.15;;;1.90;;
82244;SDS011;71849;50.096;14.458;2023-08-12T13:04:20;4.63;;;1.70;;
82244;SDS011;71849;50.096;14.458;2023-08-12T13:06:45;5.65;;;2.47;;
82244;SDS011;71849;50.096;14.458;2023-08-12T13:09:11;5.68;;;1.92;;
82244;SDS011;71849;50.096;14.458;2023-08-12T13:11:37;6.10;;;2.22;;
82244;SDS011;71849;50.096;14.458;2023-08-12T13:14:02;5.88;;;2.13;;
82244;SDS011;71849;50.096;14.458;2023-08-12T13:16:29;5.68;;;1.80;;
82244;SDS011;71849;50.096;14.458;2023-08-12T13:18:55;5.35;;;1.90;;
82244;SDS011;71849;50.096;14.458;2023-08-12T13:21:23;3.65;;;1.50;;
82244;SDS011;71849;50.096;14.458;2023-08-12T13:23:49;7.63;;;2.00;;
82244;SDS011;71849;50.096;14.458;2023-08-12T13:26:14;4.43;;;1.52;;
82244;SDS011;71849;50.096;14.458;2023-08-12T13:28:40;4.68;;;1.60;;
82244;SDS011;71849;50.096;14.458;2023-08-12T13:31:05;3.40;;;1.35;;
82244;SDS011;71849;50.096;14.458;2023-08-12T13:33:31;4.75;;;1.38;;
82244;SDS011;71849;50.096;14.458;2023-08-12T13:35:56;4.05;;;1.60;;
82244;SDS011;71849;50.096;14.458;2023-08-12T13:38:21;4.18;;;1.50;;
82244;SDS011;71849;50.096;14.458;2023-08-12T13:40:47;5.47;;;1.60;;
82244;SDS011;71849;50.096;14.458;2023-08-12T13:43:13;4.05;;;1.50;;
82244;SDS011;71849;50.096;14.458;2023-08-12T13:45:39;2.70;;;1.35;;
82244;SDS011;71849;50.096;14.458;2023-08-12T13:48:04;4.30;;;1.70;;
82244;SDS011;71849;50.096;14.458;2023-08-12T13:50:30;3.85;;;1.60;;
82244;SDS011;71849;50.096;14.458;2023-08-12T13:52:57;5.65;;;2.30;;
82244;SDS011;71849;50.096;14.458;2023-08-12T13:55:24;3.90;;;1.90;;
82244;SDS011;71849;50.096;14.458;2023-08-12T13:57:50;6.55;;;1.98;;
82244;SDS011;71849;50.096;14.458;2023-08-12T14:00:15;4.13;;;1.52;;
82244;SDS011;71849;50.096;14.458;2023-08-12T14:02:41;3.72;;;1.58;;
82244;SDS011;71849;50.096;14.458;2023-08-12T14:05:07;5.90;;;2.20;;
82244;SDS011;71849;50.096;14.458;2023-08-12T14:07:32;6.00;;;2.10;;
82244;SDS011;71849;50.096;14.458;2023-08-12T14:09:58;4.70;;;1.60;;
82244;SDS011;71849;50.096;14.458;2023-08-12T14:12:24;3.72;;;1.60;;
82244;SDS011;71849;50.096;14.458;2023-08-12T14:14:50;3.10;;;1.50;;
82244;SDS011;71849;50.096;14.458;2023-08-12T14:17:15;5.20;;;1.85;;
82244;SDS011;71849;50.096;14.458;2023-08-12T14:19:43;3.67;;;1.50;;
82244;SDS011;71849;50.096;14.458;2023-08-12T14:24:38;5.43;;;2.17;;
82244;SDS011;71849;50.096;14.458;2023-08-12T14:27:03;6.28;;;2.60;;
82244;SDS011;71849;50.096;14.458;2023-08-12T14:29:29;6.22;;;2.00;;
82244;SDS011;71849;50.096;14.458;2023-08-12T14:31:54;4.75;;;1.58;;
82244;SDS011;71849;50.096;14.458;2023-08-12T14:34:20;4.40;;;1.40;;
82244;SDS011;71849;50.096;14.458;2023-08-12T14:36:45;5.70;;;2.33;;
82244;SDS011;71849;50.096;14.458;2023-08-12T14:39:10;8.13;;;1.95;;
82244;SDS011;71849;50.096;14.458;2023-08-12T14:41:36;5.60;;;2.00;;